Time;durP1;ratioP1;P1;durP2;ratioP2;P2;SDS_P1;SDS_P2;PMS_P1;PMS_P2;Temp;Humidity;BMP_temperature;BMP_pressure;BME280_temperature;BME280_humidity;BME280_pressure;Samples;Min_cycle;Max_cycle;Signal;HPM_P1;HPM_P2
2023/10/16 00:02:13;;;;;;;56.80;2.80;;;;;;;;;;5051298;28;20210;-71
2023/10/16 00:04:43;;;;;;;56.75;3.28;;;;;;;;;;5051809;28;20206;-71
2023/10/16 00:07:12;;;;;;;56.60;2.70;;;;;;;;;;5051251;28;20209;-71
2023/10/16 00:09:40;;;;;;;56.58;3.05;;;;;;;;;;5051381;28;20275;-72
2023/10/16 00:12:15;;;;;;;56.90;3.28;;;;;;;;;;5051362;28;20202;-71
2023/10/16 00:14:42;;;;;;;56.92;3.20;;;;;;;;;;5051532;28;20275;-71
2023/10/16 00:17:09;;;;;;;56.70;3.10;;;;;;;;;;5051356;28;20589;-71
2023/10/16 00:19:37;;;;;;;56.72;2.70;;;;;;;;;;5050503;28;20248;-71
2023/10/16 00:22:13;;;;;;;56.78;3.25;;;;;;;;;;5051108;28;20248;-71
2023/10/16 00:24:45;;;;;;;56.53;2.85;;;;;;;;;;5051271;28;20210;-71
2023/10/16 00:27:14;;;;;;;56.78;3.00;;;;;;;;;;5051051;28;20692;-71
2023/10/16 00:29:41;;;;;;;56.67;2.97;;;;;;;;;;5051102;28;20230;-71
2023/10/16 00:32:09;;;;;;;56.60;2.85;;;;;;;;;;5050970;28;20210;-71
2023/10/16 00:34:36;;;;;;;56.67;3.30;;;;;;;;;;5050975;28;20205;-71
2023/10/16 00:37:04;;;;;;;56.90;3.30;;;;;;;;;;5050859;28;20206;-71
2023/10/16 00:39:32;;;;;;;56.72;3.10;;;;;;;;;;5050761;28;20711;-71
2023/10/16 00:42:00;;;;;;;56.85;3.28;;;;;;;;;;5050516;28;20210;-72
2023/10/16 00:44:33;;;;;;;56.88;3.28;;;;;;;;;;5050774;28;20300;-71
2023/10/16 00:47:03;;;;;;;56.55;2.60;;;;;;;;;;5050715;28;20301;-71
2023/10/16 00:49:31;;;;;;;56.60;3.08;;;;;;;;;;5050691;28;20236;-71
2023/10/16 00:51:58;;;;;;;56.67;2.80;;;;;;;;;;5051117;28;20209;-71
2023/10/16 00:54:28;;;;;;;56.70;3.00;;;;;;;;;;5051009;28;20780;-71
2023/10/16 00:56:57;;;;;;;56.85;3.17;;;;;;;;;;5050603;28;20206;-71
2023/10/16 00:59:25;;;;;;;56.80;2.95;;;;;;;;;;5050738;28;20217;-72
2023/10/16 01:02:04;;;;;;;56.60;2.67;;;;;;;;;;5050498;28;20224;-71
2023/10/16 01:04:32;;;;;;;56.85;3.38;;;;;;;;;;5043616;28;20685;-71
2023/10/16 01:07:00;;;;;;;56.70;2.70;;;;;;;;;;5054722;28;20555;-71
2023/10/16 01:09:33;;;;;;;56.78;2.85;;;;;;;;;;5046527;28;20686;-71
2023/10/16 01:12:06;;;;;;;56.72;3.15;;;;;;;;;;5054593;28;20624;-71
2023/10/16 01:14:33;;;;;;;56.80;3.00;;;;;;;;;;5054583;28;20674;-71
2023/10/16 01:17:00;;;;;;;56.35;2.80;;;;;;;;;;5054311;28;20206;-71
2023/10/16 01:19:28;;;;;;;56.58;2.88;;;;;;;;;;5054209;28;20222;-71
2023/10/16 01:21:58;;;;;;;56.70;3.10;;;;;;;;;;5054085;28;20202;-72
2023/10/16 01:24:27;;;;;;;56.25;3.10;;;;;;;;;;5046227;28;20291;-71
2023/10/16 01:27:00;;;;;;;56.75;3.08;;;;;;;;;;5054595;28;20267;-71
2023/10/16 01:29:28;;;;;;;56.50;3.00;;;;;;;;;;5046165;28;20225;-71
2023/10/16 01:31:55;;;;;;;56.10;2.58;;;;;;;;;;5054140;28;20251;-71
2023/10/16 01:34:23;;;;;;;56.90;3.30;;;;;;;;;;5054242;28;20206;-71
2023/10/16 01:36:51;;;;;;;56.63;3.00;;;;;;;;;;5054123;28;20206;-71
2023/10/16 01:42:11;;;;;;;56.70;3.00;;;;;;;;;;5053845;28;20225;-71
2023/10/16 01:44:39;;;;;;;56.90;3.25;;;;;;;;;;5053295;28;20209;-71
2023/10/16 01:47:13;;;;;;;56.60;3.00;;;;;;;;;;5054333;28;20202;-71
2023/10/16 01:49:40;;;;;;;56.80;3.10;;;;;;;;;;5053680;28;20243;-71
2023/10/16 01:52:10;;;;;;;56.88;2.95;;;;;;;;;;5053560;28;20217;-71
2023/10/16 01:54:39;;;;;;;56.75;3.33;;;;;;;;;;5054318;28;20210;-71
2023/10/16 01:57:10;;;;;;;56.67;3.10;;;;;;;;;;5053918;28;20209;-71
2023/10/16 01:59:39;;;;;;;56.55;2.80;;;;;;;;;;5053630;28;20272;-71
2023/10/16 02:02:06;;;;;;;56.80;3.20;;;;;;;;;;5053403;28;20224;-71
2023/10/16 02:04:33;;;;;;;56.60;2.90;;;;;;;;;;5053410;28;20201;-72
2023/10/16 02:07:00;;;;;;;56.67;2.88;;;;;;;;;;5053553;28;20213;-71
2023/10/16 02:09:31;;;;;;;56.47;2.88;;;;;;;;;;5053141;28;20689;-71
2023/10/16 02:11:59;;;;;;;56.65;3.25;;;;;;;;;;5053545;28;20216;-71
2023/10/16 02:14:27;;;;;;;56.55;2.80;;;;;;;;;;5053216;28;20237;-72
2023/10/16 02:16:56;;;;;;;56.45;3.20;;;;;;;;;;5052016;28;20472;-71
2023/10/16 02:19:25;;;;;;;56.78;3.13;;;;;;;;;;5052910;28;20226;-72
2023/10/16 02:21:53;;;;;;;56.53;2.92;;;;;;;;;;5053238;28;20304;-71
2023/10/16 02:24:21;;;;;;;56.25;2.45;;;;;;;;;;5053267;28;20292;-71
2023/10/16 02:26:56;;;;;;;56.38;2.80;;;;;;;;;;5053076;28;20213;-71
2023/10/16 02:29:24;;;;;;;56.45;3.05;;;;;;;;;;5053020;28;20233;-71
2023/10/16 02:31:52;;;;;;;56.60;3.05;;;;;;;;;;5052771;28;20210;-72
2023/10/16 02:34:22;;;;;;;56.65;2.65;;;;;;;;;;5052969;28;20678;-71
2023/10/16 02:36:50;;;;;;;56.63;3.00;;;;;;;;;;5052899;28;20305;-71
2023/10/16 02:39:35;;;;;;;56.50;2.92;;;;;;;;;;5052891;28;20223;-71
2023/10/16 02:42:05;;;;;;;57.00;3.90;;;;;;;;;;5052720;28;20752;-71
2023/10/16 02:44:33;;;;;;;56.80;2.85;;;;;;;;;;5052935;28;20636;-71
2023/10/16 02:47:05;;;;;;;56.58;2.85;;;;;;;;;;5053077;28;20210;-72
2023/10/16 02:49:33;;;;;;;56.40;2.42;;;;;;;;;;5044400;28;20217;-71
2023/10/16 02:52:00;;;;;;;56.50;2.45;;;;;;;;;;5052492;28;20218;-71
2023/10/16 02:54:29;;;;;;;56.85;3.33;;;;;;;;;;5052985;28;20206;-71
2023/10/16 02:56:59;;;;;;;56.67;3.10;;;;;;;;;;5052409;28;20214;-71
2023/10/16 02:59:27;;;;;;;56.55;2.67;;;;;;;;;;5052271;28;20771;-71
2023/10/16 03:01:56;;;;;;;56.78;3.00;;;;;;;;;;5052321;28;20222;-71
2023/10/16 03:04:27;;;;;;;56.60;3.25;;;;;;;;;;5052416;28;20291;-71
2023/10/16 03:06:55;;;;;;;56.60;2.65;;;;;;;;;;5052576;28;20617;-71
2023/10/16 03:09:30;;;;;;;56.45;2.85;;;;;;;;;;5051700;28;20229;-71
2023/10/16 03:12:04;;;;;;;56.38;2.65;;;;;;;;;;5052297;28;20228;-71
2023/10/16 03:14:44;;;;;;;56.47;2.58;;;;;;;;;;5052447;28;20683;-71
2023/10/16 03:17:17;;;;;;;57.38;3.20;;;;;;;;;;5052308;28;20217;-71
2023/10/16 03:19:48;;;;;;;56.80;3.22;;;;;;;;;;5052035;28;20300;-71
2023/10/16 03:22:15;;;;;;;56.60;2.63;;;;;;;;;;5052237;28;20206;-71
2023/10/16 03:24:43;;;;;;;56.70;3.00;;;;;;;;;;5052130;28;20202;-71
2023/10/16 03:27:10;;;;;;;56.70;2.80;;;;;;;;;;5052048;28;20206;-71
2023/10/16 03:29:37;;;;;;;56.63;3.00;;;;;;;;;;5051617;28;20320;-71
2023/10/16 03:32:05;;;;;;;56.60;3.10;;;;;;;;;;5051689;28;20673;-71
2023/10/16 03:34:32;;;;;;;56.60;3.05;;;;;;;;;;5044018;28;20206;-71
2023/10/16 03:37:04;;;;;;;56.90;2.80;;;;;;;;;;5051766;28;20292;-71
2023/10/16 03:39:31;;;;;;;56.70;3.22;;;;;;;;;;5051751;28;20222;-71
2023/10/16 03:41:59;;;;;;;56.90;3.60;;;;;;;;;;5051648;28;20618;-71
2023/10/16 03:44:27;;;;;;;56.70;3.10;;;;;;;;;;5051211;28;20212;-71
2023/10/16 03:46:55;;;;;;;56.60;3.30;;;;;;;;;;5051618;28;20205;-71
2023/10/16 03:49:22;;;;;;;56.70;2.80;;;;;;;;;;5051575;28;20261;-71
2023/10/16 03:51:50;;;;;;;56.58;2.80;;;;;;;;;;5051705;28;20212;-71
2023/10/16 03:54:30;;;;;;;56.45;2.92;;;;;;;;;;5051553;28;20213;-71
2023/10/16 03:56:59;;;;;;;56.78;2.90;;;;;;;;;;5051462;28;20677;-71
2023/10/16 03:59:28;;;;;;;56.75;3.25;;;;;;;;;;5051035;28;20709;-71
2023/10/16 04:01:55;;;;;;;56.63;2.80;;;;;;;;;;5051488;28;20222;-71
2023/10/16 04:04:25;;;;;;;56.55;3.13;;;;;;;;;;5051591;28;20213;-71
2023/10/16 04:06:56;;;;;;;56.17;3.08;;;;;;;;;;5051473;28;20301;-71
2023/10/16 04:09:29;;;;;;;57.20;3.65;;;;;;;;;;5051449;28;20229;-71
2023/10/16 04:11:57;;;;;;;56.47;2.92;;;;;;;;;;5050952;28;20210;-71
2023/10/16 04:14:44;;;;;;;56.17;2.90;;;;;;;;;;5050829;28;20218;-71
2023/10/16 04:17:11;;;;;;;56.70;2.90;;;;;;;;;;5051187;28;20665;-70
2023/10/16 04:19:52;;;;;;;56.47;3.03;;;;;;;;;;5051048;28;20225;-70
2023/10/16 04:22:18;;;;;;;56.67;3.20;;;;;;;;;;5050998;28;20209;-70
2023/10/16 04:24:47;;;;;;;56.60;2.90;;;;;;;;;;5051133;28;20201;-71
2023/10/16 04:27:29;;;;;;;56.47;2.60;;;;;;;;;;5051228;28;20206;-71
2023/10/16 04:33:13;;;;;;;56.60;3.00;;;;;;;;;;5025928;28;20686;-71
2023/10/16 04:38:31;;;;;;;56.63;3.00;;;;;;;;;;5051147;28;20347;-71
2023/10/16 04:44:21;;;;;;;56.70;2.90;;;;;;;;;;5051026;28;20212;-71
2023/10/16 04:49:19;;;;;;;56.45;2.80;;;;;;;;;;5050625;28;20260;-71
2023/10/16 04:51:52;;;;;;;56.70;3.38;;;;;;;;;;5050733;28;20229;-71
2023/10/16 04:54:45;;;;;;;56.55;3.20;;;;;;;;;;5050896;28;20205;-71
2023/10/16 05:00:12;;;;;;;56.78;3.30;;;;;;;;;;5050804;28;20824;-71
2023/10/16 05:02:41;;;;;;;56.58;3.08;;;;;;;;;;5042526;28;20694;-71
2023/10/16 05:08:13;;;;;;;56.75;3.47;;;;;;;;;;5050725;28;20277;-71
2023/10/16 05:10:51;;;;;;;56.70;3.40;;;;;;;;;;5042966;28;20233;-71
2023/10/16 05:13:39;;;;;;;56.70;3.40;;;;;;;;;;5050393;28;20214;-71
2023/10/16 05:19:02;;;;;;;56.50;2.97;;;;;;;;;;5050421;28;20220;-71
2023/10/16 06:16:28;;;;;;;56.55;2.90;;;;;;;;;;5053358;28;20204;-71
2023/10/16 06:18:59;;;;;;;56.58;2.90;;;;;;;;;;5053070;28;20316;-71
2023/10/16 06:21:26;;;;;;;56.28;2.95;;;;;;;;;;5053557;28;20608;-71
2023/10/16 06:23:53;;;;;;;56.55;3.30;;;;;;;;;;5053352;28;20214;-71
2023/10/16 06:26:26;;;;;;;56.58;3.15;;;;;;;;;;5053260;28;20209;-71
2023/10/16 06:28:54;;;;;;;56.80;3.22;;;;;;;;;;5052993;28;20225;-71
2023/10/16 06:31:23;;;;;;;56.58;3.35;;;;;;;;;;5053058;28;20232;-71
2023/10/16 06:33:56;;;;;;;56.38;3.38;;;;;;;;;;5053198;28;20210;-71
2023/10/16 06:36:24;;;;;;;56.63;3.05;;;;;;;;;;5052920;28;20666;-71
2023/10/16 06:38:52;;;;;;;56.60;3.45;;;;;;;;;;5052495;28;20769;-71
2023/10/16 06:41:20;;;;;;;56.60;2.85;;;;;;;;;;5052911;28;20690;-71
2023/10/16 06:43:50;;;;;;;56.50;3.38;;;;;;;;;;5052883;28;20220;-71
2023/10/16 06:46:23;;;;;;;56.60;3.15;;;;;;;;;;5052724;28;20213;-71
2023/10/16 06:48:50;;;;;;;56.67;3.00;;;;;;;;;;5052991;28;20316;-71
2023/10/16 06:51:17;;;;;;;56.50;3.17;;;;;;;;;;5052852;28;20225;-71
2023/10/16 06:53:46;;;;;;;56.60;2.90;;;;;;;;;;5052603;28;20313;-71
2023/10/16 06:56:27;;;;;;;56.40;3.22;;;;;;;;;;5052590;28;20205;-71
2023/10/16 06:58:54;;;;;;;56.60;3.08;;;;;;;;;;5046134;28;20225;-72
2023/10/16 07:01:21;;;;;;;57.00;3.50;;;;;;;;;;5052398;28;20209;-72
2023/10/16 07:03:50;;;;;;;56.70;3.40;;;;;;;;;;5051664;28;20696;-71
2023/10/16 07:06:17;;;;;;;56.53;3.35;;;;;;;;;;5052433;28;20206;-71
2023/10/16 07:08:44;;;;;;;56.38;3.17;;;;;;;;;;5044465;28;20612;-72
2023/10/16 07:11:13;;;;;;;56.58;2.80;;;;;;;;;;5051545;28;20232;-72
2023/10/16 07:13:40;;;;;;;56.28;3.10;;;;;;;;;;5052094;28;20209;-71
2023/10/16 07:16:09;;;;;;;56.60;2.90;;;;;;;;;;5052538;28;20212;-71
2023/10/16 07:18:42;;;;;;;56.45;3.15;;;;;;;;;;5052289;28;20240;-71
2023/10/16 07:21:10;;;;;;;56.50;2.95;;;;;;;;;;5049302;28;20206;-72
2023/10/16 07:23:39;;;;;;;56.47;2.90;;;;;;;;;;5050645;28;20218;-71
2023/10/16 07:26:06;;;;;;;56.50;3.38;;;;;;;;;;5051365;28;20222;-71
2023/10/16 07:28:35;;;;;;;56.65;3.05;;;;;;;;;;5051172;28;20232;-71
2023/10/16 07:31:02;;;;;;;56.40;2.90;;;;;;;;;;5051325;28;20221;-71
2023/10/16 07:33:30;;;;;;;56.97;3.15;;;;;;;;;;5051122;28;20209;-71
2023/10/16 07:35:59;;;;;;;56.17;2.70;;;;;;;;;;5051050;28;20210;-71
2023/10/16 07:38:26;;;;;;;56.47;3.15;;;;;;;;;;5051209;28;20253;-71
2023/10/16 07:40:54;;;;;;;56.50;2.92;;;;;;;;;;5051282;28;20624;-71
2023/10/16 07:43:26;;;;;;;56.35;2.92;;;;;;;;;;5050938;28;20582;-71
2023/10/16 07:46:07;;;;;;;57.20;3.80;;;;;;;;;;5051122;28;20202;-71
2023/10/16 07:48:34;;;;;;;56.17;3.28;;;;;;;;;;5050777;28;20226;-71
2023/10/16 07:51:06;;;;;;;56.70;3.22;;;;;;;;;;5050683;28;20232;-71
2023/10/16 07:53:34;;;;;;;56.90;3.40;;;;;;;;;;5050941;28;20298;-72
2023/10/16 07:56:02;;;;;;;56.28;2.60;;;;;;;;;;5051117;28;20202;-71
2023/10/16 07:58:33;;;;;;;57.28;3.38;;;;;;;;;;5051223;28;20217;-71
2023/10/16 08:01:17;;;;;;;58.17;3.92;;;;;;;;;;5051140;28;20216;-71
2023/10/16 08:03:46;;;;;;;56.17;2.40;;;;;;;;;;5051355;28;20259;-71
2023/10/16 08:06:17;;;;;;;56.58;2.90;;;;;;;;;;5051608;28;20293;-71
2023/10/16 08:08:48;;;;;;;56.53;2.88;;;;;;;;;;5051367;28;20590;-71
2023/10/16 08:11:18;;;;;;;56.40;2.80;;;;;;;;;;5051223;28;20222;-72
2023/10/16 08:13:47;;;;;;;56.03;2.70;;;;;;;;;;5051314;28;20205;-72
2023/10/16 08:16:18;;;;;;;56.25;2.70;;;;;;;;;;5051702;28;20634;-72
2023/10/16 08:18:47;;;;;;;56.17;2.95;;;;;;;;;;5051113;28;20291;-71
2023/10/16 08:21:23;;;;;;;56.33;2.45;;;;;;;;;;5051146;28;20624;-72
2023/10/16 08:23:51;;;;;;;56.23;2.90;;;;;;;;;;5050912;28;20206;-72
2023/10/16 08:26:28;;;;;;;57.10;3.67;;;;;;;;;;5051375;28;20440;-71
2023/10/16 08:28:55;;;;;;;56.00;2.60;;;;;;;;;;5050745;28;20987;-72
2023/10/16 08:31:23;;;;;;;56.70;3.03;;;;;;;;;;5050665;28;21040;-71
2023/10/16 08:33:51;;;;;;;56.40;2.50;;;;;;;;;;5050981;28;20487;-72
2023/10/16 08:36:21;;;;;;;56.37;2.33;;;;;;;;;;5050851;28;20507;-71
2023/10/16 08:38:55;;;;;;;56.60;2.40;;;;;;;;;;5050807;28;20460;-71
2023/10/16 08:41:42;;;;;;;56.03;3.10;;;;;;;;;;5051063;28;20448;-71
2023/10/16 08:44:14;;;;;;;56.37;2.30;;;;;;;;;;5050786;28;20444;-71
2023/10/16 08:46:52;;;;;;;56.70;3.00;;;;;;;;;;5050656;28;20953;-71
2023/10/16 08:49:22;;;;;;;56.57;2.30;;;;;;;;;;5050778;28;20522;-71
2023/10/16 08:51:49;;;;;;;55.97;2.30;;;;;;;;;;5050716;28;20486;-71
2023/10/16 08:57:01;;;;;;;56.87;2.67;;;;;;;;;;5050794;28;20415;-72
2023/10/16 08:59:28;;;;;;;56.17;2.40;;;;;;;;;;5050438;28;20542;-72
2023/10/16 09:02:01;;;;;;;55.87;2.20;;;;;;;;;;5046850;28;20978;-72
2023/10/16 09:04:28;;;;;;;56.27;2.40;;;;;;;;;;5044698;28;20445;-71
2023/10/16 09:06:55;;;;;;;56.53;2.57;;;;;;;;;;5047096;28;20447;-71
2023/10/16 09:09:25;;;;;;;56.30;2.30;;;;;;;;;;5046103;28;20587;-71
2023/10/16 09:12:00;;;;;;;56.90;2.80;;;;;;;;;;5050129;28;20843;-71
2023/10/16 09:14:27;;;;;;;56.20;2.40;;;;;;;;;;5050686;28;20453;-71
2023/10/16 09:16:55;;;;;;;56.27;2.17;;;;;;;;;;5044908;28;20444;-71
2023/10/16 09:19:32;;;;;;;56.47;2.40;;;;;;;;;;5042906;28;20480;-69
2023/10/16 09:22:00;;;;;;;56.60;2.90;;;;;;;;;;5041257;28;20842;-69
2023/10/16 09:24:28;;;;;;;56.03;2.27;;;;;;;;;;5044276;28;20452;-70
2023/10/16 09:26:56;;;;;;;56.37;2.33;;;;;;;;;;5045713;28;20441;-70
2023/10/16 09:29:25;;;;;;;56.40;2.57;;;;;;;;;;5046860;28;20468;-70
2023/10/16 09:31:52;;;;;;;56.73;2.97;;;;;;;;;;5051409;28;20894;-70
2023/10/16 09:34:22;;;;;;;56.33;2.23;;;;;;;;;;5050932;28;20461;-70
2023/10/16 09:37:15;;;;;;;56.60;2.53;;;;;;;;;;5046224;28;20499;-70
2023/10/16 09:39:40;;;;;;;57.53;3.67;;;;;;;;;;5049265;28;20523;-70
2023/10/16 09:42:11;;;;;;;57.00;3.10;;;;;;;;;;5054276;28;20447;-71
2023/10/16 09:44:39;;;;;;;56.43;2.67;;;;;;;;;;5054079;28;20543;-71
2023/10/16 09:49:48;;;;;;;56.37;2.27;;;;;;;;;;5053323;28;20466;-71
2023/10/16 09:52:20;;;;;;;56.90;2.70;;;;;;;;;;5053854;28;20494;-71
2023/10/16 09:54:48;;;;;;;56.90;2.73;;;;;;;;;;5053791;28;20454;-71
2023/10/16 09:57:18;;;;;;;57.10;3.60;;;;;;;;;;5053836;28;20490;-71
2023/10/16 09:59:45;;;;;;;57.53;2.53;;;;;;;;;;5053351;28;20589;-71
2023/10/16 10:02:17;;;;;;;56.13;2.30;;;;;;;;;;5053466;28;20463;-71
2023/10/16 10:04:49;;;;;;;56.40;2.40;;;;;;;;;;5053702;28;20460;-71
2023/10/16 10:07:20;;;;;;;55.87;2.10;;;;;;;;;;5053762;28;20547;-71
2023/10/16 10:09:48;;;;;;;58.53;2.00;;;;;;;;;;5053431;28;20881;-71
2023/10/16 10:12:37;;;;;;;56.37;2.40;;;;;;;;;;5053350;28;20991;-72
2023/10/16 10:15:14;;;;;;;56.43;2.23;;;;;;;;;;5053757;28;20452;-71
2023/10/16 10:17:41;;;;;;;56.00;2.20;;;;;;;;;;5053369;28;20459;-69
2023/10/16 10:20:09;;;;;;;56.20;2.50;;;;;;;;;;5053295;28;20470;-70
2023/10/16 10:22:44;;;;;;;55.90;2.23;;;;;;;;;;5053155;28;20450;-71
2023/10/16 10:25:16;;;;;;;56.30;2.20;;;;;;;;;;5053423;28;20449;-69
2023/10/16 10:27:43;;;;;;;56.17;2.43;;;;;;;;;;5053650;28;20460;-69
2023/10/16 10:30:17;;;;;;;56.60;2.50;;;;;;;;;;5053021;28;20474;-71
2023/10/16 10:32:45;;;;;;;55.87;2.00;;;;;;;;;;5048764;28;20495;-70
2023/10/16 10:35:26;;;;;;;56.07;2.13;;;;;;;;;;5046189;28;20460;-69
2023/10/16 10:38:07;;;;;;;55.73;2.00;;;;;;;;;;5043126;28;20484;-72
2023/10/16 10:40:35;;;;;;;56.40;2.47;;;;;;;;;;5052395;28;20520;-72
2023/10/16 10:43:04;;;;;;;56.40;2.00;;;;;;;;;;5052488;28;20447;-72
2023/10/16 10:45:34;;;;;;;55.80;2.00;;;;;;;;;;5052760;28;20469;-72
2023/10/16 10:48:06;;;;;;;55.57;1.70;;;;;;;;;;5052992;28;20450;-70
2023/10/16 10:50:34;;;;;;;55.83;1.80;;;;;;;;;;5052716;28;20522;-71
2023/10/16 10:53:04;;;;;;;55.70;1.77;;;;;;;;;;5052633;28;20495;-72
2023/10/16 10:55:32;;;;;;;55.50;1.60;;;;;;;;;;5052665;28;20793;-72
2023/10/16 10:58:03;;;;;;;55.43;1.70;;;;;;;;;;5052712;28;20456;-71
2023/10/16 11:00:45;;;;;;;55.70;1.77;;;;;;;;;;5052256;28;20973;-71
2023/10/16 11:03:30;;;;;;;55.47;1.67;;;;;;;;;;5052392;28;20989;-71
2023/10/16 11:05:57;;;;;;;55.77;1.77;;;;;;;;;;5044778;28;20931;-71
2023/10/16 11:08:29;;;;;;;55.47;1.70;;;;;;;;;;5052272;28;20465;-72
2023/10/16 11:10:58;;;;;;;55.83;1.87;;;;;;;;;;5044269;28;20954;-71
2023/10/16 11:13:26;;;;;;;55.80;1.80;;;;;;;;;;5052645;28;20490;-72
2023/10/16 11:15:53;;;;;;;55.97;1.83;;;;;;;;;;5052155;28;20951;-72
2023/10/16 11:18:21;;;;;;;57.77;2.00;;;;;;;;;;5052333;28;20577;-71
2023/10/16 11:20:49;;;;;;;54.87;1.60;;;;;;;;;;5052186;28;20454;-72
2023/10/16 11:23:17;;;;;;;55.50;1.60;;;;;;;;;;5052012;28;20440;-72
2023/10/16 11:25:45;;;;;;;55.80;1.70;;;;;;;;;;5052149;28;20773;-72
2023/10/16 11:28:17;;;;;;;55.60;1.60;;;;;;;;;;5051929;28;20450;-71
2023/10/16 11:30:46;;;;;;;54.97;1.57;;;;;;;;;;5052338;28;20501;-72
2023/10/16 11:33:13;;;;;;;55.23;1.70;;;;;;;;;;5052112;28;20481;-72
2023/10/16 11:35:46;;;;;;;55.80;1.70;;;;;;;;;;5051803;28;20876;-72
2023/10/16 11:38:19;;;;;;;55.80;1.80;;;;;;;;;;5051788;28;20448;-72
2023/10/16 11:40:47;;;;;;;56.10;1.80;;;;;;;;;;5051798;28;20490;-72
2023/10/16 11:43:19;;;;;;;55.70;1.97;;;;;;;;;;5051761;28;20450;-72
2023/10/16 11:45:53;;;;;;;56.47;2.10;;;;;;;;;;5051735;28;20459;-72
2023/10/16 11:48:28;;;;;;;56.00;1.80;;;;;;;;;;5051329;28;20515;-72
2023/10/16 11:51:06;;;;;;;55.47;1.60;;;;;;;;;;5051605;28;20617;-72
2023/10/16 11:53:34;;;;;;;55.90;1.60;;;;;;;;;;5051421;28;20490;-71
2023/10/16 11:56:02;;;;;;;55.77;1.80;;;;;;;;;;5051654;28;20478;-72
2023/10/16 11:58:31;;;;;;;55.43;1.80;;;;;;;;;;5051597;28;20556;-71
2023/10/16 12:01:09;;;;;;;55.43;1.80;;;;;;;;;;5051581;28;20448;-72
2023/10/16 12:03:37;;;;;;;56.17;1.83;;;;;;;;;;5051471;28;20828;-71
2023/10/16 12:06:08;;;;;;;57.27;2.50;;;;;;;;;;5051408;28;20844;-72
2023/10/16 12:08:36;;;;;;;55.17;1.80;;;;;;;;;;5051242;28;20471;-71
2023/10/16 12:11:04;;;;;;;55.57;1.70;;;;;;;;;;5051095;28;20443;-72
2023/10/16 12:13:32;;;;;;;55.57;1.70;;;;;;;;;;5051134;28;20491;-72
2023/10/16 12:15:59;;;;;;;55.40;1.60;;;;;;;;;;5043353;28;20451;-72
2023/10/16 12:18:28;;;;;;;55.60;1.60;;;;;;;;;;5051166;28;20471;-73
2023/10/16 12:20:59;;;;;;;56.20;2.00;;;;;;;;;;5050998;28;20451;-72
2023/10/16 12:23:26;;;;;;;55.67;1.60;;;;;;;;;;5050926;28;20994;-72
2023/10/16 12:25:53;;;;;;;55.80;1.60;;;;;;;;;;5050916;28;20450;-72
2023/10/16 12:28:21;;;;;;;55.80;1.67;;;;;;;;;;5051200;28;20449;-72
2023/10/16 12:30:49;;;;;;;55.57;1.80;;;;;;;;;;5051071;28;20451;-72
2023/10/16 12:33:16;;;;;;;55.27;1.77;;;;;;;;;;5050975;28;20897;-72
2023/10/16 12:35:43;;;;;;;55.67;1.70;;;;;;;;;;5050919;28;20447;-72
2023/10/16 12:38:10;;;;;;;55.27;1.70;;;;;;;;;;5050831;28;20538;-72
2023/10/16 12:40:38;;;;;;;55.70;2.00;;;;;;;;;;5050957;28;20462;-72
2023/10/16 12:43:06;;;;;;;55.87;1.70;;;;;;;;;;5050788;28;20539;-72
2023/10/16 12:45:34;;;;;;;55.37;1.83;;;;;;;;;;5050938;28;20454;-72
2023/10/16 12:48:03;;;;;;;55.07;1.70;;;;;;;;;;5050991;28;20453;-72
2023/10/16 12:50:30;;;;;;;55.57;1.67;;;;;;;;;;5050719;28;20970;-72
2023/10/16 12:52:58;;;;;;;55.80;1.83;;;;;;;;;;5050512;28;20498;-71
2023/10/16 12:55:26;;;;;;;55.80;1.93;;;;;;;;;;5050706;28;20455;-71
2023/10/16 12:57:53;;;;;;;55.63;1.90;;;;;;;;;;5050880;28;20458;-71
2023/10/16 13:00:21;;;;;;;55.73;1.90;;;;;;;;;;5050581;28;20476;-71
2023/10/16 13:02:50;;;;;;;55.80;1.97;;;;;;;;;;5054531;28;20446;-71
2023/10/16 13:05:19;;;;;;;55.43;1.63;;;;;;;;;;5054513;28;20455;-72
2023/10/16 13:07:47;;;;;;;55.47;1.70;;;;;;;;;;5054880;28;20441;-71
2023/10/16 13:10:15;;;;;;;55.77;2.00;;;;;;;;;;5054342;28;20475;-72
2023/10/16 13:12:42;;;;;;;55.40;1.70;;;;;;;;;;5052242;28;20483;-71
2023/10/16 13:15:10;;;;;;;55.50;1.57;;;;;;;;;;5053921;28;20491;-71
2023/10/16 13:17:37;;;;;;;55.07;1.40;;;;;;;;;;5053760;28;20452;-73
2023/10/16 13:20:05;;;;;;;55.50;1.87;;;;;;;;;;5053398;28;20987;-71
2023/10/16 13:22:34;;;;;;;54.87;1.40;;;;;;;;;;5053793;28;20840;-72
2023/10/16 13:25:01;;;;;;;55.40;1.50;;;;;;;;;;5053780;28;20819;-72
2023/10/16 13:27:28;;;;;;;55.37;1.70;;;;;;;;;;5054373;28;20458;-72
2023/10/16 13:29:55;;;;;;;55.30;1.60;;;;;;;;;;5054004;28;20478;-71
2023/10/16 13:32:22;;;;;;;55.80;1.83;;;;;;;;;;5054443;28;20486;-71
2023/10/16 13:34:50;;;;;;;55.47;1.90;;;;;;;;;;5054277;28;20451;-71
2023/10/16 13:37:18;;;;;;;55.53;1.90;;;;;;;;;;5054305;28;20451;-71
2023/10/16 13:39:47;;;;;;;55.57;1.90;;;;;;;;;;5053988;28;20532;-71
2023/10/16 13:42:15;;;;;;;55.50;1.90;;;;;;;;;;5054043;28;20463;-72
2023/10/16 13:44:42;;;;;;;55.70;1.90;;;;;;;;;;5053954;28;20453;-72
2023/10/16 13:47:10;;;;;;;55.00;1.90;;;;;;;;;;5053941;28;20455;-72
2023/10/16 13:49:37;;;;;;;55.57;2.00;;;;;;;;;;5053953;28;20471;-72
2023/10/16 13:52:07;;;;;;;55.90;2.00;;;;;;;;;;5045989;28;20452;-72
2023/10/16 13:54:35;;;;;;;55.77;2.47;;;;;;;;;;5053910;28;20901;-72
2023/10/16 13:57:06;;;;;;;55.57;1.90;;;;;;;;;;5053758;28;20880;-71
2023/10/16 13:59:34;;;;;;;55.73;1.83;;;;;;;;;;5054148;28;20475;-72
2023/10/16 14:02:02;;;;;;;55.70;1.90;;;;;;;;;;5053571;28;20455;-72
2023/10/16 14:04:33;;;;;;;55.70;1.93;;;;;;;;;;5053780;28;20448;-72
2023/10/16 14:07:00;;;;;;;55.47;1.73;;;;;;;;;;5053683;28;20507;-71
2023/10/16 14:09:28;;;;;;;55.67;1.77;;;;;;;;;;5053394;28;20477;-72
2023/10/16 14:11:58;;;;;;;55.60;1.90;;;;;;;;;;5053036;28;20823;-72
2023/10/16 14:14:27;;;;;;;55.53;1.70;;;;;;;;;;5053823;28;20854;-72
2023/10/16 14:17:03;;;;;;;55.40;1.90;;;;;;;;;;5053560;28;20946;-72
2023/10/16 14:19:30;;;;;;;55.47;1.70;;;;;;;;;;5053389;28;20839;-72
2023/10/16 14:21:57;;;;;;;55.87;1.80;;;;;;;;;;5053245;28;20935;-72
2023/10/16 14:24:25;;;;;;;55.53;1.80;;;;;;;;;;5053220;28;20934;-72
2023/10/16 14:26:54;;;;;;;55.07;1.70;;;;;;;;;;5053421;28;20818;-72
2023/10/16 14:29:22;;;;;;;56.50;2.20;;;;;;;;;;5053214;28;20479;-72
2023/10/16 14:31:51;;;;;;;55.53;2.03;;;;;;;;;;5053206;28;20460;-73
2023/10/16 14:34:21;;;;;;;55.20;1.93;;;;;;;;;;5053076;28;20574;-72
2023/10/16 14:36:49;;;;;;;55.57;1.80;;;;;;;;;;5052929;28;20461;-72
2023/10/16 14:39:17;;;;;;;56.07;1.87;;;;;;;;;;5053141;28;20522;-72
2023/10/16 14:41:45;;;;;;;55.87;2.00;;;;;;;;;;5052527;28;20953;-72
2023/10/16 14:44:12;;;;;;;55.70;1.90;;;;;;;;;;5047204;28;20439;-72
2023/10/16 14:46:39;;;;;;;55.90;2.10;;;;;;;;;;5044758;28;20457;-72
2023/10/16 14:49:09;;;;;;;56.00;1.80;;;;;;;;;;5052146;28;20469;-72
2023/10/16 14:51:37;;;;;;;56.20;2.10;;;;;;;;;;5047253;28;20450;-72
2023/10/16 14:54:05;;;;;;;56.47;2.00;;;;;;;;;;5046477;28;21077;-72
2023/10/16 14:56:36;;;;;;;56.17;2.20;;;;;;;;;;5046908;28;20501;-72
2023/10/16 14:59:04;;;;;;;55.90;2.00;;;;;;;;;;5052293;28;20505;-72
2023/10/16 15:01:33;;;;;;;56.30;2.10;;;;;;;;;;5052426;28;21017;-72
2023/10/16 15:04:00;;;;;;;55.97;2.23;;;;;;;;;;5052309;28;20449;-72
2023/10/16 15:06:30;;;;;;;56.20;2.20;;;;;;;;;;5052656;28;20456;-72
2023/10/16 15:08:58;;;;;;;56.20;1.90;;;;;;;;;;5052201;28;20480;-72
2023/10/16 15:11:26;;;;;;;56.60;2.77;;;;;;;;;;5052392;28;20460;-72
2023/10/16 15:13:53;;;;;;;55.90;1.80;;;;;;;;;;5052059;28;20865;-72
2023/10/16 15:16:21;;;;;;;56.70;2.70;;;;;;;;;;5052329;28;20963;-72
2023/10/16 15:18:48;;;;;;;57.20;2.23;;;;;;;;;;5052087;28;20486;-72
2023/10/16 15:21:16;;;;;;;56.00;2.00;;;;;;;;;;5052296;28;20451;-72
2023/10/16 15:23:45;;;;;;;56.07;2.07;;;;;;;;;;5051469;28;20509;-72
2023/10/16 15:26:12;;;;;;;55.90;2.00;;;;;;;;;;5052149;28;20471;-72
2023/10/16 15:28:40;;;;;;;56.20;2.20;;;;;;;;;;5051994;28;20478;-72
2023/10/16 15:31:07;;;;;;;56.07;2.17;;;;;;;;;;5051708;28;20460;-72
2023/10/16 15:33:34;;;;;;;55.80;1.90;;;;;;;;;;5051994;28;20609;-72
2023/10/16 15:36:02;;;;;;;55.90;1.90;;;;;;;;;;5051952;28;20447;-72
2023/10/16 15:38:29;;;;;;;56.27;2.23;;;;;;;;;;5051762;28;21004;-72
2023/10/16 15:41:00;;;;;;;56.60;2.10;;;;;;;;;;5051637;28;20452;-72
2023/10/16 15:43:27;;;;;;;56.30;2.10;;;;;;;;;;5051687;28;20448;-72
2023/10/16 15:45:54;;;;;;;56.23;2.30;;;;;;;;;;5051635;28;20447;-72
2023/10/16 15:48:21;;;;;;;55.97;2.20;;;;;;;;;;5051723;28;20456;-72
2023/10/16 15:50:49;;;;;;;56.10;2.40;;;;;;;;;;5051604;28;20458;-72
2023/10/16 15:53:16;;;;;;;56.20;2.33;;;;;;;;;;5051534;28;21066;-72
2023/10/16 15:55:46;;;;;;;56.33;2.30;;;;;;;;;;5051395;28;20448;-72
2023/10/16 15:58:15;;;;;;;55.97;2.03;;;;;;;;;;5051502;28;20960;-72
2023/10/16 16:00:42;;;;;;;56.57;2.30;;;;;;;;;;5051619;28;20443;-72
2023/10/16 16:03:10;;;;;;;56.37;2.20;;;;;;;;;;5051750;28;20445;-72
2023/10/16 16:05:38;;;;;;;56.47;2.30;;;;;;;;;;5051458;28;20942;-72
2023/10/16 16:08:08;;;;;;;56.37;2.40;;;;;;;;;;5051108;28;20463;-72
2023/10/16 16:10:38;;;;;;;56.70;2.80;;;;;;;;;;5051202;28;20458;-72